Terminal Aerodrome Forecast
Issued by NWS Shreveport, LA

Home | Current Version | Previous Version | Text Only | Print | Product List | Glossary On
Versions: 1 2 3 4 5 6 7 8 9 10 11 12
000
FTUS44 KSHV 281100 CCA
TAFELD
TAF COR
KELD 281143Z 2812/2912 01004KT P6SM -RA SCT005 OVC025
      TEMPO 2812/2816 4SM -RA OVC005
     FM281600 36006KT P6SM OVC007
     FM282100 01005KT P6SM OVC015
     FM290300 01002KT P6SM OVC025
     FM290600 02002KT 4SM BR OVC001=

USA.gov is the U.S. government's official web portal to all federal, state and local government web resources and services.